createdAt,value
2022-12-13T00:02:18.679Z,100581.25
2022-12-13T00:08:05.521Z,100592.31
2022-12-13T00:13:52.884Z,100595.44
2022-12-13T00:19:39.631Z,100604.53
2022-12-13T00:25:26.443Z,100602.34
2022-12-13T00:31:53.596Z,100600.34
2022-12-13T00:37:21.051Z,100586.91
2022-12-13T00:43:07.847Z,100590.91
2022-12-13T00:48:57.440Z,100592.13
2022-12-13T00:54:44.180Z,100575.31
2022-12-13T01:00:31.029Z,100562.13
2022-12-13T01:06:28.724Z,100554.91
2022-12-13T01:12:15.518Z,100548.31
2022-12-13T01:18:02.340Z,100556.09
2022-12-13T01:23:49.465Z,100550.69
2022-12-13T01:29:36.245Z,100555.69
2022-12-13T01:35:22.921Z,100545.50
2022-12-13T01:41:17.391Z,100539.31
2022-12-13T01:47:05.143Z,100529.72
2022-12-13T01:52:52.800Z,100543.69
2022-12-13T01:58:40.200Z,100547.72
2022-12-13T02:04:31.935Z,100553.28
2022-12-13T02:10:19.124Z,100559.31
2022-12-13T02:16:22.662Z,100553.66
2022-12-13T02:22:15.975Z,100550.47
2022-12-13T02:28:30.441Z,100567.25
2022-12-13T02:34:26.055Z,100555.66
2022-12-13T02:40:33.972Z,100560.44
2022-12-13T02:46:22.657Z,100555.06
2022-12-13T02:52:11.276Z,100549.59
2022-12-13T02:57:59.454Z,100558.88
2022-12-13T03:03:50.244Z,100552.44
2022-12-13T03:10:05.264Z,100560.25
2022-12-13T03:16:00.218Z,100558.25
2022-12-13T03:21:48.710Z,100572.28
2022-12-13T03:27:35.460Z,100560.47
2022-12-13T03:33:22.860Z,100564.69
2022-12-13T03:39:10.410Z,100552.47
2022-12-13T03:44:57.147Z,100558.44
2022-12-13T03:50:43.963Z,100549.88
2022-12-13T03:56:30.674Z,100554.09
2022-12-13T04:02:31.077Z,100543.81
2022-12-13T04:08:21.724Z,100528.47
2022-12-13T04:14:09.298Z,100532.28
2022-12-13T04:19:56.027Z,100519.88
2022-12-13T04:25:43.756Z,100516.25
2022-12-13T04:31:30.788Z,100509.19
2022-12-13T04:37:17.486Z,100494.06
2022-12-13T04:43:06.230Z,100496.66
2022-12-13T04:48:52.935Z,100495.47
2022-12-13T04:54:39.703Z,100492.63
2022-12-13T05:00:27.617Z,100503.00
2022-12-13T05:06:26.979Z,100502.63
2022-12-13T05:12:22.922Z,100494.44
2022-12-13T05:18:11.083Z,100491.66
2022-12-13T05:23:57.925Z,100496.47
2022-12-13T05:29:44.745Z,100481.63
2022-12-13T05:35:31.443Z,100501.56
2022-12-13T05:41:20.693Z,100499.63
2022-12-13T05:47:07.438Z,100508.41
2022-12-13T05:52:54.498Z,100504.66
2022-12-13T05:58:41.339Z,100504.41
2022-12-13T06:04:27.975Z,100494.09
2022-12-13T06:10:21.892Z,100493.66
2022-12-13T06:16:09.131Z,100490.47
2022-12-13T06:22:09.155Z,100503.47
2022-12-13T06:27:55.904Z,100493.25
2022-12-13T06:33:42.841Z,100510.28
2022-12-13T06:39:32.722Z,100514.25
2022-12-13T06:45:26.385Z,100503.09
2022-12-13T06:51:13.305Z,100506.47
2022-12-13T06:57:12.182Z,100509.06
2022-12-13T07:03:00.025Z,100506.69
2022-12-13T07:08:52.538Z,100517.66
2022-12-13T07:14:40.891Z,100513.50
2022-12-13T07:20:28.237Z,100514.47
2022-12-13T07:26:14.953Z,100512.88
2022-12-13T07:32:02.293Z,100532.47
2022-12-13T07:37:49.399Z,100562.94
2022-12-13T07:43:36.423Z,100538.88
2022-12-13T07:49:23.313Z,100549.53
2022-12-13T07:55:10.667Z,100551.69
2022-12-13T08:01:03.085Z,100546.06
2022-12-13T08:06:50.080Z,100548.06
2022-12-13T08:12:37.792Z,100544.69
2022-12-13T08:18:26.104Z,100541.69
2022-12-13T08:24:15.752Z,100540.50
2022-12-13T08:30:06.330Z,100517.28
2022-12-13T08:35:53.190Z,100529.25
2022-12-13T08:41:40.652Z,100519.25
2022-12-13T08:47:27.885Z,100526.88
2022-12-13T08:53:28.928Z,100535.88
2022-12-13T08:59:16.466Z,100526.66
2022-12-13T09:05:03.914Z,100514.06
2022-12-13T09:10:59.433Z,100503.28
2022-12-13T09:16:50.954Z,100507.06
2022-12-13T09:22:45.232Z,100513.50
2022-12-13T09:28:32.247Z,100505.28
2022-12-13T09:34:20.644Z,100500.41
2022-12-13T09:40:16.557Z,100494.66
2022-12-13T09:46:23.672Z,100510.63
2022-12-13T09:52:33.741Z,100504.13
2022-12-13T09:58:26.612Z,100492.97
2022-12-13T10:04:16.933Z,100479.38
2022-12-13T10:10:03.964Z,100482.81
2022-12-13T10:15:57.944Z,100473.47
2022-12-13T10:21:50.665Z,100460.84
2022-12-13T10:27:48.029Z,100458.28
2022-12-13T10:33:42.400Z,100443.72
2022-12-13T10:39:52.713Z,100432.34
2022-12-13T10:46:00.335Z,100411.66
2022-12-13T10:51:47.801Z,100400.72
2022-12-13T10:57:34.622Z,100383.78
2022-12-13T11:03:35.710Z,100377.03
2022-12-13T11:09:38.721Z,100380.63
2022-12-13T11:15:26.775Z,100380.59
2022-12-13T11:21:33.879Z,100367.72
2022-12-13T11:27:53.187Z,100368.88
2022-12-13T11:34:13.686Z,100375.53
2022-12-13T11:40:16.760Z,100363.81
2022-12-13T11:46:14.561Z,100349.63
2022-12-13T11:52:32.320Z,100343.03
2022-12-13T12:05:00.741Z,100328.88
2022-12-13T12:10:51.809Z,100318.84
2022-12-13T12:16:49.754Z,100313.09
2022-12-13T12:23:00.382Z,100298.66
2022-12-13T12:28:56.510Z,100293.31
2022-12-13T12:35:16.421Z,100289.06
2022-12-13T12:41:21.728Z,100276.63
2022-12-13T12:48:26.349Z,100276.41
2022-12-13T12:53:58.483Z,100254.03
2022-12-13T13:00:16.121Z,100253.13
2022-12-13T13:06:09.949Z,100246.00
2022-12-13T13:11:59.351Z,100250.06
2022-12-13T13:17:46.964Z,100253.69
2022-12-13T13:23:40.759Z,100239.16
2022-12-13T13:29:34.036Z,100233.50
2022-12-13T13:35:32.957Z,100236.88
2022-12-13T13:41:49.462Z,100219.75
2022-12-13T13:47:39.252Z,100219.31
2022-12-13T13:54:12.147Z,100205.28
2022-12-13T14:00:40.041Z,100205.06
2022-12-13T14:07:03.790Z,100195.75
2022-12-13T14:13:29.474Z,100197.00
2022-12-13T14:20:04.652Z,100178.88
2022-12-13T14:26:13.599Z,100177.91
2022-12-13T14:32:00.599Z,100177.34
2022-12-13T14:38:02.687Z,100189.63
2022-12-13T14:43:50.326Z,100190.91
2022-12-13T14:49:49.171Z,100202.44
2022-12-13T14:55:37.531Z,100207.84
2022-12-13T15:01:30.997Z,100221.84
2022-12-13T15:07:21.335Z,100219.66
2022-12-13T15:13:34.257Z,100223.38
2022-12-13T15:19:30.931Z,100221.38
2022-12-13T15:25:22.744Z,100208.28
2022-12-13T15:31:10.290Z,100210.72
2022-12-13T15:36:59.387Z,100208.47
2022-12-13T15:42:49.592Z,100210.69
2022-12-13T15:48:40.730Z,100210.06
2022-12-13T15:54:35.991Z,100197.16
2022-12-13T16:00:35.910Z,100201.00
2022-12-13T16:06:41.373Z,100190.41
2022-12-13T16:12:59.048Z,100181.34
2022-12-13T16:19:04.348Z,100192.75
2022-12-13T16:25:01.609Z,100198.44
2022-12-13T16:30:56.636Z,100198.25
2022-12-13T16:36:52.390Z,100198.19
2022-12-13T16:42:50.842Z,100187.97
2022-12-13T16:48:44.430Z,100183.94
2022-12-13T16:54:34.337Z,100187.91
2022-12-13T17:00:26.595Z,100198.09
2022-12-13T17:06:24.612Z,100190.97
2022-12-13T17:12:14.233Z,100181.75
2022-12-13T17:18:03.585Z,100175.41
2022-12-13T17:24:04.718Z,100173.63
2022-12-13T17:29:53.466Z,100159.94
2022-12-13T17:35:45.947Z,100177.34
2022-12-13T17:41:36.290Z,100162.16
2022-12-13T17:47:25.980Z,100154.16
2022-12-13T17:53:17.959Z,100152.84
2022-12-13T17:59:10.387Z,100134.78
2022-12-13T18:04:57.421Z,100148.22
2022-12-13T18:11:08.586Z,100145.47
2022-12-13T18:16:59.676Z,100172.13
2022-12-13T18:22:51.204Z,100189.84
2022-12-13T18:28:39.504Z,100158.06
2022-12-13T18:34:27.759Z,100156.59
2022-12-13T18:40:14.882Z,100150.31
2022-12-13T18:46:03.598Z,100127.41
2022-12-13T18:51:50.583Z,100134.47
2022-12-13T18:57:37.732Z,100128.31
2022-12-13T19:03:26.275Z,100126.50
2022-12-13T19:09:13.491Z,100134.97
2022-12-13T19:15:01.043Z,100120.06
2022-12-13T19:20:53.740Z,100114.41
2022-12-13T19:26:41.454Z,100116.81
2022-12-13T19:32:28.379Z,100093.44
2022-12-13T19:38:15.125Z,100097.56
2022-12-13T19:44:04.650Z,100090.78
2022-12-13T19:49:57.246Z,100117.34
2022-12-13T19:55:48.421Z,100097.47
2022-12-13T20:01:35.565Z,100086.72
2022-12-13T20:07:23.865Z,100076.03
2022-12-13T20:13:14.350Z,100076.81
2022-12-13T20:19:01.458Z,100060.94
2022-12-13T20:24:48.342Z,100066.97
2022-12-13T20:30:35.558Z,100044.03
2022-12-13T20:36:24.663Z,100042.34
2022-12-13T20:42:12.400Z,100053.78
2022-12-13T20:48:00.273Z,100049.03
2022-12-13T20:53:49.540Z,100039.84
2022-12-13T20:59:36.645Z,100042.47
2022-12-13T21:05:23.442Z,100055.91
2022-12-13T21:11:25.420Z,100074.34
2022-12-13T21:17:12.183Z,100069.88
2022-12-13T21:22:59.026Z,100069.97
2022-12-13T21:28:47.695Z,100057.91
2022-12-13T21:34:35.719Z,100055.25
2022-12-13T21:40:24.498Z,100029.84
2022-12-13T21:46:13.980Z,100031.88
2022-12-13T21:52:00.730Z,100024.84
2022-12-13T21:58:19.292Z,100036.75
2022-12-13T22:04:09.120Z,100032.13
2022-12-13T22:10:08.129Z,100024.06
2022-12-13T22:15:54.993Z,100027.94
2022-12-13T22:21:46.745Z,100036.38
2022-12-13T22:27:33.879Z,100034.34
2022-12-13T22:33:31.786Z,100028.38
2022-12-13T22:39:23.587Z,100035.44
2022-12-13T22:45:11.466Z,100044.16
2022-12-13T22:51:27.917Z,100047.97
2022-12-13T22:57:14.674Z,100046.44
2022-12-13T23:03:02.631Z,100055.41
2022-12-13T23:08:55.437Z,100055.41
2022-12-13T23:14:46.168Z,100062.75
2022-12-13T23:20:34.548Z,100070.25
2022-12-13T23:26:23.633Z,100074.78
2022-12-13T23:32:10.555Z,100064.59
2022-12-13T23:37:57.463Z,100049.72
2022-12-13T23:43:45.563Z,100031.91
2022-12-13T23:49:58.832Z,100047.66
2022-12-13T23:55:48.941Z,100037.13
